Terminal Aerodrome Forecast
Issued by NWS San Angelo, TX

Home | Current Version | Previous Version | Text Only | Print | Product List | Glossary On
Versions: 1 2 3 4 5 6 7 8 9 10 11 12 13 14 15 16 17
703
FTUS44 KSJT 211147
TAFSJT
TAF
KSJT 211147Z 2112/2212 18012G18KT P6SM BKN015
     FM211500 20016G23KT P6SM OVC015
     FM211800 21015G23KT P6SM SCT040
     FM212200 21012KT P6SM SCT050
     FM220600 34012KT P6SM VCTS SCT050CB BKN100
     FM220900 36012KT P6SM SCT250=

USA.gov is the U.S. government's official web portal to all federal, state and local government web resources and services.